ePrivacy and GPDR Cookie Consent by Cookie Consent
EmailTwitter


Surface observations / United Kingdom / EGLL (03772)

Regions: Quebec | Canada | USA | Europe | France | UK | Elsewhere
Station
Display
Info & Location for EGLL (03772) | Help decoding METAR

Weather Conditions observed on 2022/08/18 at 08:20 UTC at LONDON/HEATHROW, UK (EGLL)

Sky conditions: partly cloudy.

Temperature: 20.0 Celsius.

Dewpoint: 17.0 Celsius.

Relative Humidity: 83%

Humidex 25.

Winds: South at 6 km/h or 3 knots.

Mean Sea level Pressure: 101.50 kilopascals.

Horizontal visibility: 6.21 statute miles or 9.94 kilometers.

Height of the Ceiling: 1128 metres ( 3700 feet ).

Coded METAR:

EGLL 180820Z AUTO 17003KT 140V220 9999 SCT010 BKN037 20/17 Q1015 NOSIG=